Vitacura, Chile
Current Conditions -  °F | °C
As of 11:00 PM on Saturday 25 Oct 2014 (Local Time) from SCEL Reporting Station
Clear Clear  
Wind Chill: 64°   Ceiling: Unl
Heat Index: 64°   Visibility: 6mi
Dew Point: 45°   Wind: 9mph
Humidity: 49%   Direction: 140°SE
Pressure: 29.91"   Gusts: NA
Location:  33.4°S, 70.6°W
Report Text: SCEL 260300Z 14008KT CAVOK 18/07 Q1013 NOSIG
Loading
Personal Weather Stations






























Interactive Weather Map
Tropical Storm Tracking
New forecast layout! Learn more

10-Day Weather Forecast

Advertisements
Track Severe Weather on mobile